sensor_id;sensor_type;location;lat;lon;timestamp;P1;durP1;ratioP1;P2;durP2;ratioP2
5807;SDS011;2930;42.678;23.312;2022-11-30T00:01:12;2.43;;;1.27;;
5807;SDS011;2930;42.678;23.312;2022-11-30T00:03:38;0.67;;;0.67;;
5807;SDS011;2930;42.678;23.312;2022-11-30T00:06:04;1.63;;;1.17;;
5807;SDS011;2930;42.678;23.312;2022-11-30T00:08:31;1.13;;;1.13;;
5807;SDS011;2930;42.678;23.312;2022-11-30T00:10:56;1.13;;;1.13;;
5807;SDS011;2930;42.678;23.312;2022-11-30T00:13:22;1.17;;;0.50;;
5807;SDS011;2930;42.678;23.312;2022-11-30T00:15:48;0.60;;;0.60;;
5807;SDS011;2930;42.678;23.312;2022-11-30T00:18:14;0.90;;;0.90;;
5807;SDS011;2930;42.678;23.312;2022-11-30T00:20:41;0.93;;;0.70;;
5807;SDS011;2930;42.678;23.312;2022-11-30T00:23:08;2.50;;;0.93;;
5807;SDS011;2930;42.678;23.312;2022-11-30T00:25:34;0.80;;;0.80;;
5807;SDS011;2930;42.678;23.312;2022-11-30T00:28:01;2.47;;;0.60;;
5807;SDS011;2930;42.678;23.312;2022-11-30T00:30:27;1.63;;;0.87;;
5807;SDS011;2930;42.678;23.312;2022-11-30T00:32:56;0.80;;;0.80;;
5807;SDS011;2930;42.678;23.312;2022-11-30T00:35:22;0.87;;;0.87;;
5807;SDS011;2930;42.678;23.312;2022-11-30T00:37:47;0.70;;;0.70;;
5807;SDS011;2930;42.678;23.312;2022-11-30T00:40:13;1.30;;;1.13;;
5807;SDS011;2930;42.678;23.312;2022-11-30T00:42:39;2.03;;;1.10;;
5807;SDS011;2930;42.678;23.312;2022-11-30T00:45:05;0.70;;;0.70;;
5807;SDS011;2930;42.678;23.312;2022-11-30T00:47:31;1.07;;;1.03;;
5807;SDS011;2930;42.678;23.312;2022-11-30T00:49:56;1.37;;;1.00;;
5807;SDS011;2930;42.678;23.312;2022-11-30T00:52:22;1.60;;;0.97;;
5807;SDS011;2930;42.678;23.312;2022-11-30T00:54:47;1.40;;;1.30;;
5807;SDS011;2930;42.678;23.312;2022-11-30T00:57:13;0.83;;;0.83;;
5807;SDS011;2930;42.678;23.312;2022-11-30T00:59:39;3.07;;;0.97;;
5807;SDS011;2930;42.678;23.312;2022-11-30T01:02:04;0.87;;;0.87;;
5807;SDS011;2930;42.678;23.312;2022-11-30T01:04:30;1.17;;;0.97;;
5807;SDS011;2930;42.678;23.312;2022-11-30T01:06:56;1.07;;;1.00;;
5807;SDS011;2930;42.678;23.312;2022-11-30T01:09:21;1.07;;;1.00;;
5807;SDS011;2930;42.678;23.312;2022-11-30T01:11:47;0.73;;;0.73;;
5807;SDS011;2930;42.678;23.312;2022-11-30T01:14:12;1.77;;;1.30;;
5807;SDS011;2930;42.678;23.312;2022-11-30T01:16:38;0.87;;;0.83;;
5807;SDS011;2930;42.678;23.312;2022-11-30T01:19:04;3.23;;;1.03;;
5807;SDS011;2930;42.678;23.312;2022-11-30T01:21:30;1.97;;;1.60;;
5807;SDS011;2930;42.678;23.312;2022-11-30T01:23:56;5.00;;;1.43;;
5807;SDS011;2930;42.678;23.312;2022-11-30T01:26:22;0.80;;;0.80;;
5807;SDS011;2930;42.678;23.312;2022-11-30T01:28:51;1.10;;;1.00;;
5807;SDS011;2930;42.678;23.312;2022-11-30T01:31:18;0.97;;;0.90;;
5807;SDS011;2930;42.678;23.312;2022-11-30T01:33:48;1.27;;;0.90;;
5807;SDS011;2930;42.678;23.312;2022-11-30T01:36:20;0.70;;;0.60;;
5807;SDS011;2930;42.678;23.312;2022-11-30T01:38:48;0.53;;;0.53;;
5807;SDS011;2930;42.678;23.312;2022-11-30T01:41:22;0.40;;;0.40;;
5807;SDS011;2930;42.678;23.312;2022-11-30T01:43:54;0.50;;;0.43;;
5807;SDS011;2930;42.678;23.312;2022-11-30T01:51:35;0.73;;;0.40;;
5807;SDS011;2930;42.678;23.312;2022-11-30T01:54:03;0.50;;;0.50;;
5807;SDS011;2930;42.678;23.312;2022-11-30T01:56:31;1.03;;;0.53;;
5807;SDS011;2930;42.678;23.312;2022-11-30T01:58:58;0.67;;;0.63;;
5807;SDS011;2930;42.678;23.312;2022-11-30T02:01:24;0.60;;;0.50;;
5807;SDS011;2930;42.678;23.312;2022-11-30T02:06:21;1.07;;;0.70;;
5807;SDS011;2930;42.678;23.312;2022-11-30T02:08:48;0.60;;;0.60;;
5807;SDS011;2930;42.678;23.312;2022-11-30T02:11:15;0.70;;;0.70;;
5807;SDS011;2930;42.678;23.312;2022-11-30T02:22:06;0.77;;;0.77;;
5807;SDS011;2930;42.678;23.312;2022-11-30T02:24:59;1.33;;;0.80;;
5807;SDS011;2930;42.678;23.312;2022-11-30T02:30:26;0.80;;;0.77;;
5807;SDS011;2930;42.678;23.312;2022-11-30T02:33:04;2.20;;;0.60;;
5807;SDS011;2930;42.678;23.312;2022-11-30T02:35:35;0.70;;;0.70;;
5807;SDS011;2930;42.678;23.312;2022-11-30T02:38:04;0.80;;;0.80;;
5807;SDS011;2930;42.678;23.312;2022-11-30T02:40:30;0.67;;;0.40;;
5807;SDS011;2930;42.678;23.312;2022-11-30T02:42:57;0.87;;;0.70;;
5807;SDS011;2930;42.678;23.312;2022-11-30T02:45:28;0.60;;;0.60;;
5807;SDS011;2930;42.678;23.312;2022-11-30T02:48:09;0.40;;;0.40;;
5807;SDS011;2930;42.678;23.312;2022-11-30T02:53:07;0.50;;;0.50;;
5807;SDS011;2930;42.678;23.312;2022-11-30T02:55:34;0.60;;;0.60;;
5807;SDS011;2930;42.678;23.312;2022-11-30T02:58:00;0.60;;;0.60;;
5807;SDS011;2930;42.678;23.312;2022-11-30T03:00:25;0.47;;;0.47;;
5807;SDS011;2930;42.678;23.312;2022-11-30T03:02:51;0.60;;;0.60;;
5807;SDS011;2930;42.678;23.312;2022-11-30T03:05:17;0.57;;;0.57;;
5807;SDS011;2930;42.678;23.312;2022-11-30T03:07:43;0.67;;;0.67;;
5807;SDS011;2930;42.678;23.312;2022-11-30T03:10:09;0.57;;;0.57;;
5807;SDS011;2930;42.678;23.312;2022-11-30T03:12:34;0.60;;;0.60;;
5807;SDS011;2930;42.678;23.312;2022-11-30T03:15:00;0.30;;;0.30;;
5807;SDS011;2930;42.678;23.312;2022-11-30T03:17:26;0.40;;;0.40;;
5807;SDS011;2930;42.678;23.312;2022-11-30T03:19:51;0.70;;;0.60;;
5807;SDS011;2930;42.678;23.312;2022-11-30T03:22:17;0.50;;;0.50;;
5807;SDS011;2930;42.678;23.312;2022-11-30T03:24:43;0.83;;;0.63;;
5807;SDS011;2930;42.678;23.312;2022-11-30T03:27:08;3.40;;;0.50;;
5807;SDS011;2930;42.678;23.312;2022-11-30T03:29:34;0.30;;;0.30;;
5807;SDS011;2930;42.678;23.312;2022-11-30T03:32:00;0.50;;;0.50;;
5807;SDS011;2930;42.678;23.312;2022-11-30T03:34:25;0.50;;;0.40;;
5807;SDS011;2930;42.678;23.312;2022-11-30T03:36:52;0.33;;;0.33;;
5807;SDS011;2930;42.678;23.312;2022-11-30T03:39:18;0.33;;;0.33;;
5807;SDS011;2930;42.678;23.312;2022-11-30T03:41:44;1.27;;;0.50;;
5807;SDS011;2930;42.678;23.312;2022-11-30T03:44:09;0.50;;;0.50;;
5807;SDS011;2930;42.678;23.312;2022-11-30T03:46:35;0.40;;;0.40;;
5807;SDS011;2930;42.678;23.312;2022-11-30T03:49:01;0.53;;;0.40;;
5807;SDS011;2930;42.678;23.312;2022-11-30T03:51:26;0.30;;;0.30;;
5807;SDS011;2930;42.678;23.312;2022-11-30T03:53:52;0.50;;;0.50;;
5807;SDS011;2930;42.678;23.312;2022-11-30T03:56:18;0.57;;;0.57;;
5807;SDS011;2930;42.678;23.312;2022-11-30T03:58:43;0.30;;;0.30;;
5807;SDS011;2930;42.678;23.312;2022-11-30T04:03:39;0.30;;;0.30;;
5807;SDS011;2930;42.678;23.312;2022-11-30T04:06:05;0.40;;;0.40;;
5807;SDS011;2930;42.678;23.312;2022-11-30T04:08:32;0.30;;;0.30;;
5807;SDS011;2930;42.678;23.312;2022-11-30T04:10:59;0.20;;;0.20;;
5807;SDS011;2930;42.678;23.312;2022-11-30T04:13:27;0.50;;;0.50;;
5807;SDS011;2930;42.678;23.312;2022-11-30T04:15:54;0.40;;;0.40;;
5807;SDS011;2930;42.678;23.312;2022-11-30T04:18:20;0.93;;;0.37;;
5807;SDS011;2930;42.678;23.312;2022-11-30T04:20:52;0.40;;;0.40;;
5807;SDS011;2930;42.678;23.312;2022-11-30T04:23:19;0.63;;;0.30;;
5807;SDS011;2930;42.678;23.312;2022-11-30T04:25:45;0.30;;;0.30;;
5807;SDS011;2930;42.678;23.312;2022-11-30T04:28:12;0.30;;;0.30;;
5807;SDS011;2930;42.678;23.312;2022-11-30T04:30:38;0.30;;;0.30;;
5807;SDS011;2930;42.678;23.312;2022-11-30T04:33:04;0.33;;;0.33;;
5807;SDS011;2930;42.678;23.312;2022-11-30T04:35:31;0.40;;;0.40;;
5807;SDS011;2930;42.678;23.312;2022-11-30T04:37:57;0.40;;;0.27;;
5807;SDS011;2930;42.678;23.312;2022-11-30T04:40:24;0.30;;;0.30;;
5807;SDS011;2930;42.678;23.312;2022-11-30T04:42:49;0.40;;;0.40;;
5807;SDS011;2930;42.678;23.312;2022-11-30T04:45:15;0.87;;;0.30;;
5807;SDS011;2930;42.678;23.312;2022-11-30T04:47:41;0.30;;;0.30;;
5807;SDS011;2930;42.678;23.312;2022-11-30T04:50:07;1.10;;;0.40;;
5807;SDS011;2930;42.678;23.312;2022-11-30T04:52:33;0.30;;;0.30;;
5807;SDS011;2930;42.678;23.312;2022-11-30T04:54:59;0.83;;;0.47;;
5807;SDS011;2930;42.678;23.312;2022-11-30T04:57:24;0.63;;;0.40;;
5807;SDS011;2930;42.678;23.312;2022-11-30T04:59:51;1.53;;;0.50;;
5807;SDS011;2930;42.678;23.312;2022-11-30T05:02:16;0.40;;;0.40;;
5807;SDS011;2930;42.678;23.312;2022-11-30T05:04:42;0.30;;;0.30;;
5807;SDS011;2930;42.678;23.312;2022-11-30T05:07:08;0.67;;;0.67;;
5807;SDS011;2930;42.678;23.312;2022-11-30T05:09:34;0.40;;;0.40;;
5807;SDS011;2930;42.678;23.312;2022-11-30T05:12:00;0.40;;;0.40;;
5807;SDS011;2930;42.678;23.312;2022-11-30T05:14:25;0.40;;;0.40;;
5807;SDS011;2930;42.678;23.312;2022-11-30T05:16:51;0.83;;;0.43;;
5807;SDS011;2930;42.678;23.312;2022-11-30T05:19:17;0.40;;;0.40;;
5807;SDS011;2930;42.678;23.312;2022-11-30T05:21:43;0.27;;;0.27;;
5807;SDS011;2930;42.678;23.312;2022-11-30T05:24:09;0.37;;;0.37;;
5807;SDS011;2930;42.678;23.312;2022-11-30T05:26:35;0.40;;;0.40;;
5807;SDS011;2930;42.678;23.312;2022-11-30T05:29:02;1.60;;;0.70;;
5807;SDS011;2930;42.678;23.312;2022-11-30T05:31:29;0.40;;;0.40;;
5807;SDS011;2930;42.678;23.312;2022-11-30T05:33:54;0.30;;;0.30;;
5807;SDS011;2930;42.678;23.312;2022-11-30T05:36:20;0.30;;;0.30;;
5807;SDS011;2930;42.678;23.312;2022-11-30T05:38:46;0.47;;;0.20;;
5807;SDS011;2930;42.678;23.312;2022-11-30T05:41:12;1.17;;;0.30;;
5807;SDS011;2930;42.678;23.312;2022-11-30T05:43:38;0.20;;;0.20;;
5807;SDS011;2930;42.678;23.312;2022-11-30T05:46:05;0.33;;;0.33;;
5807;SDS011;2930;42.678;23.312;2022-11-30T05:48:31;0.40;;;0.40;;
5807;SDS011;2930;42.678;23.312;2022-11-30T05:51:19;0.40;;;0.40;;
5807;SDS011;2930;42.678;23.312;2022-11-30T05:53:45;0.40;;;0.30;;
5807;SDS011;2930;42.678;23.312;2022-11-30T05:56:15;0.23;;;0.23;;
5807;SDS011;2930;42.678;23.312;2022-11-30T05:58:43;0.20;;;0.20;;
5807;SDS011;2930;42.678;23.312;2022-11-30T06:01:23;0.30;;;0.30;;
5807;SDS011;2930;42.678;23.312;2022-11-30T06:03:50;0.20;;;0.20;;
5807;SDS011;2930;42.678;23.312;2022-11-30T06:06:16;0.20;;;0.20;;
5807;SDS011;2930;42.678;23.312;2022-11-30T06:08:43;0.37;;;0.37;;
5807;SDS011;2930;42.678;23.312;2022-11-30T06:11:10;0.33;;;0.33;;
5807;SDS011;2930;42.678;23.312;2022-11-30T06:13:35;0.30;;;0.30;;
5807;SDS011;2930;42.678;23.312;2022-11-30T06:16:03;1.70;;;0.30;;
5807;SDS011;2930;42.678;23.312;2022-11-30T06:18:30;0.40;;;0.40;;
5807;SDS011;2930;42.678;23.312;2022-11-30T06:21:06;0.27;;;0.27;;
5807;SDS011;2930;42.678;23.312;2022-11-30T06:23:33;0.30;;;0.30;;
5807;SDS011;2930;42.678;23.312;2022-11-30T06:26:06;0.40;;;0.40;;
5807;SDS011;2930;42.678;23.312;2022-11-30T06:28:34;0.40;;;0.40;;
5807;SDS011;2930;42.678;23.312;2022-11-30T06:31:00;0.30;;;0.30;;
5807;SDS011;2930;42.678;23.312;2022-11-30T06:33:28;0.53;;;0.53;;
5807;SDS011;2930;42.678;23.312;2022-11-30T06:35:54;0.40;;;0.40;;
5807;SDS011;2930;42.678;23.312;2022-11-30T06:38:20;0.60;;;0.60;;
5807;SDS011;2930;42.678;23.312;2022-11-30T06:40:47;0.60;;;0.60;;
5807;SDS011;2930;42.678;23.312;2022-11-30T06:43:13;0.47;;;0.47;;
5807;SDS011;2930;42.678;23.312;2022-11-30T06:45:41;0.50;;;0.50;;
5807;SDS011;2930;42.678;23.312;2022-11-30T06:48:08;0.40;;;0.40;;
5807;SDS011;2930;42.678;23.312;2022-11-30T06:50:34;0.30;;;0.30;;
5807;SDS011;2930;42.678;23.312;2022-11-30T06:53:00;0.40;;;0.40;;
5807;SDS011;2930;42.678;23.312;2022-11-30T06:55:25;0.60;;;0.60;;
5807;SDS011;2930;42.678;23.312;2022-11-30T06:57:51;0.40;;;0.40;;
5807;SDS011;2930;42.678;23.312;2022-11-30T07:00:17;0.57;;;0.57;;
5807;SDS011;2930;42.678;23.312;2022-11-30T07:02:43;2.63;;;0.50;;
5807;SDS011;2930;42.678;23.312;2022-11-30T07:05:09;0.30;;;0.30;;
5807;SDS011;2930;42.678;23.312;2022-11-30T07:07:34;1.10;;;0.50;;
5807;SDS011;2930;42.678;23.312;2022-11-30T07:10:00;0.63;;;0.40;;
5807;SDS011;2930;42.678;23.312;2022-11-30T07:12:26;0.33;;;0.33;;
5807;SDS011;2930;42.678;23.312;2022-11-30T07:14:51;1.00;;;0.50;;
5807;SDS011;2930;42.678;23.312;2022-11-30T07:17:20;1.77;;;0.40;;
5807;SDS011;2930;42.678;23.312;2022-11-30T07:19:46;0.63;;;0.63;;
5807;SDS011;2930;42.678;23.312;2022-11-30T07:22:12;0.80;;;0.80;;
5807;SDS011;2930;42.678;23.312;2022-11-30T07:24:38;0.97;;;0.97;;
5807;SDS011;2930;42.678;23.312;2022-11-30T07:27:22;3.47;;;1.20;;
5807;SDS011;2930;42.678;23.312;2022-11-30T07:29:47;1.33;;;1.10;;
5807;SDS011;2930;42.678;23.312;2022-11-30T07:32:15;0.73;;;0.73;;
5807;SDS011;2930;42.678;23.312;2022-11-30T07:34:41;0.80;;;0.80;;
5807;SDS011;2930;42.678;23.312;2022-11-30T07:37:07;1.00;;;1.00;;
5807;SDS011;2930;42.678;23.312;2022-11-30T07:39:32;1.00;;;1.00;;
5807;SDS011;2930;42.678;23.312;2022-11-30T07:41:58;0.70;;;0.70;;
5807;SDS011;2930;42.678;23.312;2022-11-30T07:44:23;0.97;;;0.97;;
5807;SDS011;2930;42.678;23.312;2022-11-30T07:46:49;1.00;;;1.00;;
5807;SDS011;2930;42.678;23.312;2022-11-30T07:49:15;0.90;;;0.90;;
5807;SDS011;2930;42.678;23.312;2022-11-30T07:51:40;0.70;;;0.70;;
5807;SDS011;2930;42.678;23.312;2022-11-30T07:54:06;0.60;;;0.60;;
5807;SDS011;2930;42.678;23.312;2022-11-30T07:56:32;0.90;;;0.90;;
5807;SDS011;2930;42.678;23.312;2022-11-30T07:58:58;0.70;;;0.70;;
5807;SDS011;2930;42.678;23.312;2022-11-30T08:01:26;0.40;;;0.40;;
5807;SDS011;2930;42.678;23.312;2022-11-30T08:03:53;0.50;;;0.50;;
5807;SDS011;2930;42.678;23.312;2022-11-30T08:06:20;0.43;;;0.43;;
5807;SDS011;2930;42.678;23.312;2022-11-30T08:08:48;0.40;;;0.40;;
5807;SDS011;2930;42.678;23.312;2022-11-30T08:11:16;0.50;;;0.50;;
5807;SDS011;2930;42.678;23.312;2022-11-30T08:13:43;0.30;;;0.30;;
5807;SDS011;2930;42.678;23.312;2022-11-30T08:16:11;0.40;;;0.40;;
5807;SDS011;2930;42.678;23.312;2022-11-30T08:18:41;0.30;;;0.30;;
5807;SDS011;2930;42.678;23.312;2022-11-30T08:21:08;0.33;;;0.33;;
5807;SDS011;2930;42.678;23.312;2022-11-30T08:23:42;0.30;;;0.30;;
5807;SDS011;2930;42.678;23.312;2022-11-30T08:28:36;0.57;;;0.57;;
5807;SDS011;2930;42.678;23.312;2022-11-30T08:31:04;0.53;;;0.37;;
5807;SDS011;2930;42.678;23.312;2022-11-30T08:33:32;0.23;;;0.23;;
5807;SDS011;2930;42.678;23.312;2022-11-30T08:38:31;0.30;;;0.30;;
5807;SDS011;2930;42.678;23.312;2022-11-30T08:40:56;1.53;;;0.40;;
5807;SDS011;2930;42.678;23.312;2022-11-30T08:43:22;0.40;;;0.40;;
5807;SDS011;2930;42.678;23.312;2022-11-30T08:45:48;0.50;;;0.30;;
5807;SDS011;2930;42.678;23.312;2022-11-30T08:48:14;0.10;;;0.10;;
5807;SDS011;2930;42.678;23.312;2022-11-30T08:50:39;1.00;;;0.37;;
5807;SDS011;2930;42.678;23.312;2022-11-30T08:53:05;0.20;;;0.20;;
5807;SDS011;2930;42.678;23.312;2022-11-30T08:55:30;0.50;;;0.50;;
5807;SDS011;2930;42.678;23.312;2022-11-30T08:57:56;0.13;;;0.13;;
5807;SDS011;2930;42.678;23.312;2022-11-30T09:00:22;0.40;;;0.40;;
5807;SDS011;2930;42.678;23.312;2022-11-30T09:02:48;0.37;;;0.30;;
5807;SDS011;2930;42.678;23.312;2022-11-30T09:05:14;0.40;;;0.40;;
5807;SDS011;2930;42.678;23.312;2022-11-30T09:07:39;0.47;;;0.47;;
5807;SDS011;2930;42.678;23.312;2022-11-30T09:10:07;0.77;;;0.77;;
5807;SDS011;2930;42.678;23.312;2022-11-30T09:12:33;0.77;;;0.30;;
5807;SDS011;2930;42.678;23.312;2022-11-30T09:15:00;0.50;;;0.30;;
5807;SDS011;2930;42.678;23.312;2022-11-30T09:17:26;0.40;;;0.40;;
5807;SDS011;2930;42.678;23.312;2022-11-30T09:19:52;0.93;;;0.70;;
5807;SDS011;2930;42.678;23.312;2022-11-30T09:22:19;0.60;;;0.60;;
5807;SDS011;2930;42.678;23.312;2022-11-30T09:24:44;0.50;;;0.50;;
5807;SDS011;2930;42.678;23.312;2022-11-30T09:27:10;0.67;;;0.30;;
5807;SDS011;2930;42.678;23.312;2022-11-30T09:29:36;0.47;;;0.47;;
5807;SDS011;2930;42.678;23.312;2022-11-30T09:32:01;0.30;;;0.30;;
5807;SDS011;2930;42.678;23.312;2022-11-30T09:34:27;0.50;;;0.30;;
5807;SDS011;2930;42.678;23.312;2022-11-30T09:36:53;0.83;;;0.40;;
5807;SDS011;2930;42.678;23.312;2022-11-30T09:39:18;0.93;;;0.30;;
5807;SDS011;2930;42.678;23.312;2022-11-30T09:45:04;0.30;;;0.30;;
5807;SDS011;2930;42.678;23.312;2022-11-30T09:50:04;0.70;;;0.50;;
5807;SDS011;2930;42.678;23.312;2022-11-30T09:52:40;7.10;;;0.60;;
5807;SDS011;2930;42.678;23.312;2022-11-30T09:55:09;0.53;;;0.53;;
5807;SDS011;2930;42.678;23.312;2022-11-30T10:02:40;0.37;;;0.37;;
5807;SDS011;2930;42.678;23.312;2022-11-30T10:13:15;0.40;;;0.40;;
5807;SDS011;2930;42.678;23.312;2022-11-30T10:26:37;1.93;;;0.57;;
5807;SDS011;2930;42.678;23.312;2022-11-30T10:31:41;0.50;;;0.30;;
5807;SDS011;2930;42.678;23.312;2022-11-30T10:34:17;0.87;;;0.30;;
5807;SDS011;2930;42.678;23.312;2022-11-30T10:36:44;0.87;;;0.30;;
5807;SDS011;2930;42.678;23.312;2022-11-30T10:39:33;0.37;;;0.37;;
5807;SDS011;2930;42.678;23.312;2022-11-30T10:42:16;0.33;;;0.33;;
5807;SDS011;2930;42.678;23.312;2022-11-30T10:45:12;0.27;;;0.27;;
5807;SDS011;2930;42.678;23.312;2022-11-30T10:47:42;0.30;;;0.30;;
5807;SDS011;2930;42.678;23.312;2022-11-30T10:50:15;0.50;;;0.50;;
5807;SDS011;2930;42.678;23.312;2022-11-30T10:52:45;0.27;;;0.27;;
5807;SDS011;2930;42.678;23.312;2022-11-30T10:55:19;0.40;;;0.40;;
5807;SDS011;2930;42.678;23.312;2022-11-30T10:57:47;0.30;;;0.30;;
5807;SDS011;2930;42.678;23.312;2022-11-30T11:00:19;0.40;;;0.37;;
5807;SDS011;2930;42.678;23.312;2022-11-30T11:02:49;4.00;;;0.33;;
5807;SDS011;2930;42.678;23.312;2022-11-30T11:12:59;0.53;;;0.33;;
5807;SDS011;2930;42.678;23.312;2022-11-30T11:17:53;0.40;;;0.40;;
5807;SDS011;2930;42.678;23.312;2022-11-30T11:20:36;0.73;;;0.47;;
5807;SDS011;2930;42.678;23.312;2022-11-30T11:23:17;0.60;;;0.60;;
5807;SDS011;2930;42.678;23.312;2022-11-30T11:25:48;0.70;;;0.70;;
5807;SDS011;2930;42.678;23.312;2022-11-30T11:28:17;0.47;;;0.47;;
5807;SDS011;2930;42.678;23.312;2022-11-30T11:30:45;2.40;;;0.50;;
5807;SDS011;2930;42.678;23.312;2022-11-30T11:40:52;0.40;;;0.40;;
5807;SDS011;2930;42.678;23.312;2022-11-30T11:43:32;0.93;;;0.67;;
5807;SDS011;2930;42.678;23.312;2022-11-30T11:46:11;0.70;;;0.70;;
5807;SDS011;2930;42.678;23.312;2022-11-30T11:48:38;0.40;;;0.40;;
5807;SDS011;2930;42.678;23.312;2022-11-30T11:51:10;0.50;;;0.50;;
5807;SDS011;2930;42.678;23.312;2022-11-30T11:53:46;0.57;;;0.50;;
5807;SDS011;2930;42.678;23.312;2022-11-30T11:56:19;0.50;;;0.50;;
5807;SDS011;2930;42.678;23.312;2022-11-30T11:59:00;1.53;;;0.50;;
5807;SDS011;2930;42.678;23.312;2022-11-30T12:01:47;0.40;;;0.40;;
5807;SDS011;2930;42.678;23.312;2022-11-30T12:04:22;0.50;;;0.40;;
5807;SDS011;2930;42.678;23.312;2022-11-30T12:12:38;0.40;;;0.40;;
5807;SDS011;2930;42.678;23.312;2022-11-30T12:15:07;0.60;;;0.60;;
5807;SDS011;2930;42.678;23.312;2022-11-30T12:25:41;1.30;;;0.40;;
5807;SDS011;2930;42.678;23.312;2022-11-30T12:28:42;0.50;;;0.50;;
5807;SDS011;2930;42.678;23.312;2022-11-30T12:31:20;0.50;;;0.40;;
5807;SDS011;2930;42.678;23.312;2022-11-30T12:42:18;1.07;;;0.57;;
5807;SDS011;2930;42.678;23.312;2022-11-30T12:53:02;0.60;;;0.60;;
5807;SDS011;2930;42.678;23.312;2022-11-30T12:58:21;0.50;;;0.50;;
5807;SDS011;2930;42.678;23.312;2022-11-30T13:06:15;2.77;;;0.47;;
5807;SDS011;2930;42.678;23.312;2022-11-30T13:08:59;0.87;;;0.50;;
5807;SDS011;2930;42.678;23.312;2022-11-30T13:14:01;0.30;;;0.30;;
5807;SDS011;2930;42.678;23.312;2022-11-30T13:16:33;1.47;;;0.57;;
5807;SDS011;2930;42.678;23.312;2022-11-30T13:19:06;0.50;;;0.40;;
5807;SDS011;2930;42.678;23.312;2022-11-30T13:21:43;0.33;;;0.33;;
5807;SDS011;2930;42.678;23.312;2022-11-30T13:24:19;0.40;;;0.40;;
5807;SDS011;2930;42.678;23.312;2022-11-30T13:27:07;0.40;;;0.40;;
5807;SDS011;2930;42.678;23.312;2022-11-30T13:29:48;0.93;;;0.50;;
5807;SDS011;2930;42.678;23.312;2022-11-30T13:32:33;0.57;;;0.57;;
5807;SDS011;2930;42.678;23.312;2022-11-30T13:38:03;0.40;;;0.40;;
5807;SDS011;2930;42.678;23.312;2022-11-30T13:40:37;0.40;;;0.40;;
5807;SDS011;2930;42.678;23.312;2022-11-30T13:43:02;0.50;;;0.50;;
5807;SDS011;2930;42.678;23.312;2022-11-30T13:45:32;1.33;;;0.90;;
5807;SDS011;2930;42.678;23.312;2022-11-30T13:47:59;0.60;;;0.60;;
5807;SDS011;2930;42.678;23.312;2022-11-30T13:50:41;0.77;;;0.50;;
5807;SDS011;2930;42.678;23.312;2022-11-30T13:53:20;0.60;;;0.60;;
5807;SDS011;2930;42.678;23.312;2022-11-30T13:58:13;0.77;;;0.77;;
5807;SDS011;2930;42.678;23.312;2022-11-30T14:05:53;2.00;;;1.07;;
5807;SDS011;2930;42.678;23.312;2022-11-30T14:08:39;0.40;;;0.40;;
5807;SDS011;2930;42.678;23.312;2022-11-30T14:17:19;0.73;;;0.53;;
5807;SDS011;2930;42.678;23.312;2022-11-30T14:19:49;1.23;;;0.80;;
5807;SDS011;2930;42.678;23.312;2022-11-30T14:22:16;0.40;;;0.40;;
5807;SDS011;2930;42.678;23.312;2022-11-30T14:24:44;0.50;;;0.50;;
5807;SDS011;2930;42.678;23.312;2022-11-30T14:27:15;0.60;;;0.60;;
5807;SDS011;2930;42.678;23.312;2022-11-30T14:29:44;1.70;;;0.47;;
5807;SDS011;2930;42.678;23.312;2022-11-30T14:32:50;0.57;;;0.57;;
5807;SDS011;2930;42.678;23.312;2022-11-30T14:35:14;1.00;;;0.90;;
5807;SDS011;2930;42.678;23.312;2022-11-30T14:37:44;0.90;;;0.90;;
5807;SDS011;2930;42.678;23.312;2022-11-30T14:40:17;0.57;;;0.57;;
5807;SDS011;2930;42.678;23.312;2022-11-30T14:43:05;0.50;;;0.50;;
5807;SDS011;2930;42.678;23.312;2022-11-30T14:45:33;0.40;;;0.40;;
5807;SDS011;2930;42.678;23.312;2022-11-30T14:48:05;0.50;;;0.50;;
5807;SDS011;2930;42.678;23.312;2022-11-30T14:50:35;0.50;;;0.50;;
5807;SDS011;2930;42.678;23.312;2022-11-30T14:58:22;0.40;;;0.40;;
5807;SDS011;2930;42.678;23.312;2022-11-30T15:01:20;0.50;;;0.50;;
5807;SDS011;2930;42.678;23.312;2022-11-30T15:03:49;0.60;;;0.60;;
5807;SDS011;2930;42.678;23.312;2022-11-30T15:06:17;0.40;;;0.40;;
5807;SDS011;2930;42.678;23.312;2022-11-30T15:08:52;0.50;;;0.50;;
5807;SDS011;2930;42.678;23.312;2022-11-30T15:11:20;0.60;;;0.60;;
5807;SDS011;2930;42.678;23.312;2022-11-30T15:13:47;0.70;;;0.70;;
5807;SDS011;2930;42.678;23.312;2022-11-30T15:16:16;0.93;;;0.93;;
5807;SDS011;2930;42.678;23.312;2022-11-30T15:18:45;1.13;;;0.60;;
5807;SDS011;2930;42.678;23.312;2022-11-30T15:21:12;0.83;;;0.80;;
5807;SDS011;2930;42.678;23.312;2022-11-30T15:23:46;0.60;;;0.60;;
5807;SDS011;2930;42.678;23.312;2022-11-30T15:26:16;1.80;;;0.57;;
5807;SDS011;2930;42.678;23.312;2022-11-30T15:28:48;0.70;;;0.70;;
5807;SDS011;2930;42.678;23.312;2022-11-30T15:31:43;0.87;;;0.80;;
5807;SDS011;2930;42.678;23.312;2022-11-30T15:34:26;0.97;;;0.50;;
5807;SDS011;2930;42.678;23.312;2022-11-30T15:36:58;0.43;;;0.43;;
5807;SDS011;2930;42.678;23.312;2022-11-30T15:39:26;0.47;;;0.47;;
5807;SDS011;2930;42.678;23.312;2022-11-30T15:41:56;0.67;;;0.67;;
5807;SDS011;2930;42.678;23.312;2022-11-30T15:50:30;0.73;;;0.60;;
5807;SDS011;2930;42.678;23.312;2022-11-30T15:52:50;0.50;;;0.50;;
5807;SDS011;2930;42.678;23.312;2022-11-30T15:58:05;0.60;;;0.60;;
5807;SDS011;2930;42.678;23.312;2022-11-30T16:01:01;1.50;;;0.50;;
5807;SDS011;2930;42.678;23.312;2022-11-30T16:03:32;0.70;;;0.70;;
5807;SDS011;2930;42.678;23.312;2022-11-30T16:05:59;0.60;;;0.60;;
5807;SDS011;2930;42.678;23.312;2022-11-30T16:08:28;0.70;;;0.70;;
5807;SDS011;2930;42.678;23.312;2022-11-30T16:10:54;0.50;;;0.50;;
5807;SDS011;2930;42.678;23.312;2022-11-30T16:13:20;0.60;;;0.60;;
5807;SDS011;2930;42.678;23.312;2022-11-30T16:15:48;0.63;;;0.63;;
5807;SDS011;2930;42.678;23.312;2022-11-30T16:18:18;0.67;;;0.67;;
5807;SDS011;2930;42.678;23.312;2022-11-30T16:20:56;0.80;;;0.80;;
5807;SDS011;2930;42.678;23.312;2022-11-30T16:23:23;2.17;;;0.70;;
5807;SDS011;2930;42.678;23.312;2022-11-30T16:25:50;0.50;;;0.50;;
5807;SDS011;2930;42.678;23.312;2022-11-30T16:28:16;0.37;;;0.37;;
5807;SDS011;2930;42.678;23.312;2022-11-30T16:30:43;0.70;;;0.70;;
5807;SDS011;2930;42.678;23.312;2022-11-30T16:33:11;0.60;;;0.57;;
5807;SDS011;2930;42.678;23.312;2022-11-30T16:38:25;0.50;;;0.50;;
5807;SDS011;2930;42.678;23.312;2022-11-30T16:40:51;0.60;;;0.60;;
5807;SDS011;2930;42.678;23.312;2022-11-30T16:43:19;0.47;;;0.47;;
5807;SDS011;2930;42.678;23.312;2022-11-30T16:45:46;0.60;;;0.60;;
5807;SDS011;2930;42.678;23.312;2022-11-30T16:48:14;0.87;;;0.60;;
5807;SDS011;2930;42.678;23.312;2022-11-30T16:50:41;0.53;;;0.53;;
5807;SDS011;2930;42.678;23.312;2022-11-30T16:53:09;0.60;;;0.60;;
5807;SDS011;2930;42.678;23.312;2022-11-30T16:55:40;0.40;;;0.40;;
5807;SDS011;2930;42.678;23.312;2022-11-30T16:58:06;1.13;;;0.40;;
5807;SDS011;2930;42.678;23.312;2022-11-30T17:00:32;2.10;;;0.70;;
5807;SDS011;2930;42.678;23.312;2022-11-30T17:03:01;0.57;;;0.50;;
5807;SDS011;2930;42.678;23.312;2022-11-30T17:05:32;0.70;;;0.70;;
5807;SDS011;2930;42.678;23.312;2022-11-30T17:07:58;4.43;;;0.50;;
5807;SDS011;2930;42.678;23.312;2022-11-30T17:10:24;2.17;;;0.60;;
5807;SDS011;2930;42.678;23.312;2022-11-30T17:12:49;1.30;;;0.60;;
5807;SDS011;2930;42.678;23.312;2022-11-30T17:15:17;0.77;;;0.77;;
5807;SDS011;2930;42.678;23.312;2022-11-30T17:17:44;0.90;;;0.87;;
5807;SDS011;2930;42.678;23.312;2022-11-30T17:20:11;2.50;;;0.67;;
5807;SDS011;2930;42.678;23.312;2022-11-30T17:22:38;1.23;;;0.70;;
5807;SDS011;2930;42.678;23.312;2022-11-30T17:25:04;0.80;;;0.80;;
5807;SDS011;2930;42.678;23.312;2022-11-30T17:27:33;0.60;;;0.60;;
5807;SDS011;2930;42.678;23.312;2022-11-30T17:29:59;0.80;;;0.80;;
5807;SDS011;2930;42.678;23.312;2022-11-30T17:32:24;0.40;;;0.40;;
5807;SDS011;2930;42.678;23.312;2022-11-30T17:34:50;0.60;;;0.60;;
5807;SDS011;2930;42.678;23.312;2022-11-30T17:37:16;0.37;;;0.37;;
5807;SDS011;2930;42.678;23.312;2022-11-30T17:39:41;0.53;;;0.53;;
5807;SDS011;2930;42.678;23.312;2022-11-30T17:42:07;0.47;;;0.47;;
5807;SDS011;2930;42.678;23.312;2022-11-30T17:44:33;1.33;;;0.97;;